Time;durP1;ratioP1;P1;durP2;ratioP2;P2;SDS_P1;SDS_P2;PMS_P1;PMS_P2;Temp;Humidity;BMP_temperature;BMP_pressure;BME280_temperature;BME280_humidity;BME280_pressure;Samples;Min_cycle;Max_cycle;Signal;HPM_P1;HPM_P2
2022/03/08 00:00:29;;;;;;;8.20;6.55;;;;;;;22.55;nan;99285.50;5089968;28;21037;-60
2022/03/08 00:02:54;;;;;;;7.70;6.18;;;;;;;22.42;nan;99287.81;5089971;28;20412;-60
2022/03/08 00:05:22;;;;;;;7.30;6.00;;;;;;;22.32;nan;99286.56;5089780;28;20511;-60
2022/03/08 00:07:47;;;;;;;6.88;5.70;;;;;;;22.28;nan;99293.28;5089745;28;20078;-60
2022/03/08 00:10:13;;;;;;;6.82;5.57;;;;;;;22.22;nan;99292.88;5089817;28;20096;-60
2022/03/08 00:12:39;;;;;;;6.85;5.78;;;;;;;22.14;nan;99294.78;5089954;28;20055;-60
2022/03/08 00:15:17;;;;;;;7.28;6.35;;;;;;;22.12;nan;99296.38;5089748;28;20047;-60
2022/03/08 00:17:43;;;;;;;7.05;5.82;;;;;;;22.10;nan;99301.53;5089804;28;20516;-57
2022/03/08 00:20:09;;;;;;;6.63;5.43;;;;;;;22.05;nan;99301.84;5089699;28;20087;-56
2022/03/08 00:22:36;;;;;;;6.90;5.63;;;;;;;22.03;nan;99301.44;5089469;28;20040;-57
2022/03/08 00:25:03;;;;;;;8.07;6.65;;;;;;;22.01;nan;99303.81;5089471;28;20063;-57
2022/03/08 00:27:30;;;;;;;7.68;5.95;;;;;;;21.97;nan;99296.22;5089746;28;20492;-57
2022/03/08 00:29:56;;;;;;;7.00;5.70;;;;;;;21.93;nan;99295.41;5091957;28;20055;-57
2022/03/08 00:32:22;;;;;;;7.28;5.55;;;;;;;21.93;nan;99303.78;5093459;28;20036;-57
2022/03/08 00:34:47;;;;;;;7.15;5.88;;;;;;;21.94;nan;99305.38;5091680;28;20063;-57
2022/03/08 00:37:13;;;;;;;7.63;5.85;;;;;;;21.92;nan;99298.56;5093056;28;20420;-57
2022/03/08 00:39:38;;;;;;;7.22;5.78;;;;;;;21.87;nan;99285.81;5093176;28;20096;-57
2022/03/08 00:42:04;;;;;;;6.82;5.53;;;;;;;21.89;nan;99296.56;5093117;28;20119;-57
2022/03/08 00:44:30;;;;;;;7.55;5.85;;;;;;;21.86;nan;99297.31;5092833;28;20048;-57
2022/03/08 00:46:55;;;;;;;7.45;6.20;;;;;;;21.89;nan;99302.13;5092995;28;20047;-57
2022/03/08 00:49:21;;;;;;;8.07;6.20;;;;;;;21.87;nan;99296.94;5093034;28;20050;-57
2022/03/08 00:51:46;;;;;;;7.22;6.13;;;;;;;21.87;nan;99298.94;5092825;28;20192;-57
2022/03/08 00:54:11;;;;;;;7.40;5.82;;;;;;;21.86;nan;99303.72;5092892;28;20412;-57
2022/03/08 00:56:37;;;;;;;7.03;5.82;;;;;;;21.86;nan;99311.22;5092623;28;20052;-57
2022/03/08 00:59:02;;;;;;;7.85;5.88;;;;;;;21.84;nan;99310.81;5092612;28;20048;-57
2022/03/08 01:01:28;;;;;;;7.43;5.90;;;;;;;21.83;nan;99317.59;5092589;28;20527;-57
2022/03/08 01:03:53;;;;;;;7.55;6.00;;;;;;;21.82;nan;99318.78;5092461;28;20040;-57
2022/03/08 01:06:19;;;;;;;6.80;5.50;;;;;;;21.80;nan;99321.94;5092697;28;20150;-57
2022/03/08 01:08:44;;;;;;;6.32;5.22;;;;;;;21.79;nan;99319.53;5092671;28;20048;-57
2022/03/08 01:11:13;;;;;;;6.47;5.50;;;;;;;21.80;nan;99321.94;5092808;28;20117;-57
2022/03/08 01:13:38;;;;;;;7.28;5.97;;;;;;;21.79;nan;99325.09;5092379;28;20040;-56
2022/03/08 01:16:04;;;;;;;6.80;5.53;;;;;;;21.78;nan;99320.72;5092284;28;20048;-57
2022/03/08 01:18:29;;;;;;;6.65;5.40;;;;;;;21.79;nan;99322.31;5097959;28;20040;-57
2022/03/08 01:20:55;;;;;;;7.05;5.82;;;;;;;21.79;nan;99323.13;5112015;28;20499;-57
2022/03/08 01:23:20;;;;;;;6.60;5.53;;;;;;;21.79;nan;99319.53;5112530;28;20107;-57
2022/03/08 01:25:46;;;;;;;7.70;5.78;;;;;;;21.77;nan;99317.13;5112618;28;20048;-57
2022/03/08 01:28:11;;;;;;;7.35;6.00;;;;;;;21.77;nan;99322.69;5112730;28;20043;-57
2022/03/08 01:30:37;;;;;;;7.03;5.55;;;;;;;21.78;nan;99326.28;5112576;28;20047;-57
2022/03/08 01:33:03;;;;;;;7.55;5.57;;;;;;;21.77;nan;99319.91;5112579;28;20051;-57
2022/03/08 01:35:28;;;;;;;7.38;5.75;;;;;;;21.77;nan;99313.53;5112489;28;20134;-57
2022/03/08 01:37:54;;;;;;;6.82;5.35;;;;;;;21.76;nan;99312.75;5110108;28;20796;-57
2022/03/08 01:40:20;;;;;;;7.20;5.63;;;;;;;21.76;nan;99312.75;5111201;28;20043;-57
2022/03/08 01:42:48;;;;;;;6.95;5.30;;;;;;;21.76;nan;99309.16;5112146;28;20097;-57
2022/03/08 01:45:15;;;;;;;6.60;5.50;;;;;;;21.75;nan;99307.56;5112229;28;20044;-57
2022/03/08 01:47:41;;;;;;;6.78;5.30;;;;;;;21.73;nan;99309.94;5112141;28;20039;-57
2022/03/08 01:50:08;;;;;;;7.15;5.45;;;;;;;21.73;nan;99313.53;5112029;28;20050;-57
2022/03/08 01:52:35;;;;;;;5.75;5.05;;;;;;;21.71;nan;99308.31;5112195;28;20048;-57
2022/03/08 01:55:00;;;;;;;7.00;5.78;;;;;;;21.74;nan;99317.91;5111984;28;20052;-57
2022/03/08 01:57:26;;;;;;;6.60;5.65;;;;;;;21.72;nan;99309.16;5112234;28;20093;-57
2022/03/08 01:59:53;;;;;;;5.78;4.78;;;;;;;21.97;nan;99303.78;5112193;28;20051;-57
2022/03/08 02:02:18;;;;;;;5.45;4.50;;;;;;;22.77;nan;99306.72;5111960;28;20047;-57
2022/03/08 02:04:44;;;;;;;5.63;4.93;;;;;;;23.57;nan;99298.25;5112080;28;20040;-57
2022/03/08 02:07:10;;;;;;;5.55;4.70;;;;;;;24.20;nan;99301.50;5112068;28;20063;-57
2022/03/08 02:09:36;;;;;;;6.22;5.22;;;;;;;24.12;nan;99295.13;5111894;28;20075;-57
2022/03/08 02:12:02;;;;;;;6.85;5.35;;;;;;;23.75;nan;99301.13;5112002;28;20051;-57
2022/03/08 02:14:28;;;;;;;5.70;4.78;;;;;;;23.34;nan;99295.81;5112141;28;20507;-57
2022/03/08 02:16:54;;;;;;;6.10;5.03;;;;;;;23.05;nan;99301.31;5112004;28;20423;-57
2022/03/08 02:19:19;;;;;;;6.30;5.03;;;;;;;22.81;nan;99301.97;5111847;28;20420;-57
2022/03/08 02:21:45;;;;;;;5.65;4.70;;;;;;;22.62;nan;99299.47;5111543;28;20459;-57
2022/03/08 02:24:10;;;;;;;6.05;5.03;;;;;;;22.47;nan;99307.75;5111632;28;20049;-57
2022/03/08 02:26:36;;;;;;;5.90;4.85;;;;;;;22.36;nan;99308.88;5111741;28;20043;-57
2022/03/08 02:29:04;;;;;;;6.28;5.00;;;;;;;22.28;nan;99299.66;5111521;28;20449;-57
2022/03/08 02:31:30;;;;;;;5.70;4.68;;;;;;;22.17;nan;99304.38;5111372;28;20051;-56
2022/03/08 02:33:55;;;;;;;5.75;4.75;;;;;;;22.13;nan;99304.34;5111361;28;20407;-57
2022/03/08 02:36:22;;;;;;;5.97;4.65;;;;;;;22.08;nan;99298.31;5111417;28;20039;-57
2022/03/08 02:38:47;;;;;;;5.85;4.75;;;;;;;22.03;nan;99299.47;5111495;28;20052;-57
2022/03/08 02:41:13;;;;;;;6.15;5.10;;;;;;;21.99;nan;99302.19;5111478;28;20032;-57
2022/03/08 02:43:38;;;;;;;5.80;4.72;;;;;;;21.96;nan;99303.00;5111597;28;20040;-57
2022/03/08 02:46:04;;;;;;;5.88;4.80;;;;;;;21.91;nan;99306.13;5111490;28;20035;-57
2022/03/08 02:48:29;;;;;;;5.72;4.50;;;;;;;21.91;nan;99306.13;5111372;28;20070;-57
2022/03/08 02:50:56;;;;;;;5.90;4.97;;;;;;;21.88;nan;99298.53;5111344;28;20044;-57
2022/03/08 02:53:21;;;;;;;5.85;4.72;;;;;;;21.85;nan;99307.66;5111083;28;20076;-57
2022/03/08 02:55:47;;;;;;;5.78;4.70;;;;;;;21.85;nan;99306.84;5111297;28;20039;-57
2022/03/08 02:58:13;;;;;;;5.63;4.53;;;;;;;21.82;nan;99310.41;5111337;28;20411;-57
2022/03/08 03:00:40;;;;;;;5.78;4.97;;;;;;;21.79;nan;99295.28;5111253;28;20112;-57
2022/03/08 03:03:07;;;;;;;5.80;4.85;;;;;;;21.79;nan;99297.25;5111035;28;20058;-57
2022/03/08 03:05:33;;;;;;;6.32;4.95;;;;;;;21.78;nan;99302.03;5110904;28;20127;-57
2022/03/08 03:07:59;;;;;;;5.68;4.80;;;;;;;21.78;nan;99315.94;5111124;28;20085;-57
2022/03/08 03:10:25;;;;;;;5.55;4.60;;;;;;;21.76;nan;99309.97;5110742;28;20054;-57
2022/03/08 03:12:53;;;;;;;5.97;4.75;;;;;;;21.74;nan;99309.56;5110801;28;20070;-57
2022/03/08 03:15:20;;;;;;;5.45;4.70;;;;;;;21.77;nan;99307.97;5110610;28;20119;-57
2022/03/08 03:17:46;;;;;;;5.50;4.50;;;;;;;21.75;nan;99304.78;5110879;28;20042;-57
2022/03/08 03:20:14;;;;;;;5.60;4.65;;;;;;;21.72;nan;99303.59;5110646;28;20051;-57
2022/03/08 03:22:40;;;;;;;5.32;4.28;;;;;;;21.73;nan;99309.94;5110847;28;20052;-57
2022/03/08 03:25:07;;;;;;;5.20;4.32;;;;;;;21.72;nan;99300.78;5110779;28;20049;-57
2022/03/08 03:27:32;;;;;;;5.70;4.40;;;;;;;21.79;nan;99300.03;5110398;28;20039;-57
2022/03/08 03:29:58;;;;;;;5.55;4.50;;;;;;;22.25;nan;99301.25;5110555;28;20057;-57
2022/03/08 03:32:23;;;;;;;5.55;4.70;;;;;;;22.70;nan;99306.69;5110644;28;20112;-57
2022/03/08 03:34:49;;;;;;;5.55;4.18;;;;;;;23.10;nan;99299.34;5110556;28;20043;-57
2022/03/08 03:37:15;;;;;;;5.97;4.63;;;;;;;23.17;nan;99289.00;5110029;28;20040;-57
2022/03/08 03:39:41;;;;;;;5.97;4.40;;;;;;;22.95;nan;99287.34;5107690;28;20105;-57
2022/03/08 03:42:07;;;;;;;5.53;4.50;;;;;;;22.75;nan;99289.59;5110535;28;20411;-57
2022/03/08 03:44:32;;;;;;;5.13;4.22;;;;;;;22.73;nan;99283.63;5110434;28;20504;-57
2022/03/08 03:46:58;;;;;;;4.57;3.90;;;;;;;23.24;nan;99279.84;5110312;28;20082;-57
2022/03/08 03:49:23;;;;;;;5.45;4.63;;;;;;;23.93;nan;99281.56;5110070;28;20077;-57
2022/03/08 03:51:51;;;;;;;5.53;4.47;;;;;;;24.34;nan;99285.56;5110492;28;20126;-57
2022/03/08 03:54:20;;;;;;;5.40;4.60;;;;;;;24.06;nan;99289.13;5110265;28;20047;-57
2022/03/08 03:56:46;;;;;;;5.22;4.20;;;;;;;23.69;nan;99292.31;5110287;28;20047;-57
2022/03/08 03:59:12;;;;;;;5.25;4.25;;;;;;;23.34;nan;99290.25;5110182;28;20058;-57
2022/03/08 04:01:37;;;;;;;5.47;4.60;;;;;;;23.04;nan;99287.75;5110259;28;20583;-57
2022/03/08 04:04:03;;;;;;;5.00;4.20;;;;;;;22.83;nan;99287.63;5109109;28;20043;-57
2022/03/08 04:06:28;;;;;;;5.57;4.60;;;;;;;22.63;nan;99285.16;5110203;28;20478;-56
2022/03/08 04:08:54;;;;;;;5.47;4.57;;;;;;;22.49;nan;99285.88;5107932;28;20047;-57
2022/03/08 04:11:19;;;;;;;5.22;4.15;;;;;;;22.37;nan;99283.44;5110016;28;20040;-57
2022/03/08 04:13:44;;;;;;;5.00;4.25;;;;;;;22.29;nan;99281.78;5110024;28;20069;-57
2022/03/08 04:16:10;;;;;;;5.65;4.30;;;;;;;22.22;nan;99295.66;5109987;28;20070;-57
2022/03/08 04:18:36;;;;;;;4.75;3.97;;;;;;;22.15;nan;99292.84;5109796;28;20076;-56
2022/03/08 04:21:02;;;;;;;5.82;4.70;;;;;;;22.07;nan;99294.69;5110042;28;20072;-57
2022/03/08 04:23:27;;;;;;;5.57;4.55;;;;;;;22.04;nan;99289.91;5109957;28;20044;-57
2022/03/08 04:25:53;;;;;;;4.55;3.97;;;;;;;21.97;nan;99293.44;5109939;28;20093;-57
2022/03/08 04:28:18;;;;;;;5.50;4.50;;;;;;;21.96;nan;99293.84;5109803;28;20094;-57
2022/03/08 04:30:44;;;;;;;5.55;4.47;;;;;;;21.94;nan;99302.59;5109602;28;20050;-57
2022/03/08 04:33:09;;;;;;;5.93;4.72;;;;;;;21.89;nan;99302.94;5109927;28;20036;-57
2022/03/08 04:35:35;;;;;;;6.28;4.90;;;;;;;21.89;nan;99302.94;5109669;28;20066;-57
2022/03/08 04:38:00;;;;;;;5.60;4.50;;;;;;;21.86;nan;99306.50;5109607;28;20040;-57
2022/03/08 04:40:26;;;;;;;5.32;4.40;;;;;;;21.84;nan;99311.63;5109664;28;20101;-57
2022/03/08 04:42:51;;;;;;;5.32;4.65;;;;;;;21.82;nan;99307.63;5109596;28;20122;-57
2022/03/08 04:45:18;;;;;;;5.80;4.78;;;;;;;21.80;nan;99315.59;5109702;28;20043;-57
2022/03/08 04:47:43;;;;;;;5.20;4.38;;;;;;;21.79;nan;99311.16;5109289;28;20083;-57
2022/03/08 04:50:13;;;;;;;5.10;4.20;;;;;;;21.77;nan;99317.13;5109616;28;20109;-57
2022/03/08 04:52:40;;;;;;;5.55;4.45;;;;;;;21.76;nan;99320.31;5109505;28;20052;-57
2022/03/08 04:55:06;;;;;;;5.32;4.45;;;;;;;21.75;nan;99322.28;5108150;28;20043;-57
2022/03/08 04:57:31;;;;;;;6.32;5.00;;;;;;;21.73;nan;99319.09;5109375;28;20047;-57
2022/03/08 04:59:57;;;;;;;5.75;4.72;;;;;;;21.73;nan;99329.44;5109583;28;20082;-57
2022/03/08 05:02:23;;;;;;;5.95;4.85;;;;;;;21.73;nan;99326.66;5109386;28;20043;-57
2022/03/08 05:04:48;;;;;;;5.15;4.32;;;;;;;21.71;nan;99324.22;5109362;28;20165;-57
2022/03/08 05:07:14;;;;;;;5.15;4.30;;;;;;;21.71;nan;99327.81;5109273;28;20108;-57
2022/03/08 05:09:39;;;;;;;5.57;4.68;;;;;;;21.68;nan;99325.81;5109310;28;20051;-57
2022/03/08 05:12:05;;;;;;;5.50;4.60;;;;;;;21.69;nan;99324.63;5109269;28;20035;-57
2022/03/08 05:14:31;;;;;;;5.03;4.28;;;;;;;21.70;nan;99323.44;5109552;28;20207;-57
2022/03/08 05:16:57;;;;;;;5.13;4.53;;;;;;;22.11;nan;99325.41;5112669;28;20044;-57
2022/03/08 05:19:22;;;;;;;4.80;3.92;;;;;;;22.61;nan;99325.78;5112797;28;20035;-57
2022/03/08 05:21:48;;;;;;;5.13;4.40;;;;;;;22.85;nan;99324.28;5112776;28;20403;-57
2022/03/08 05:24:13;;;;;;;5.50;4.72;;;;;;;22.71;nan;99325.81;5112236;28;20415;-57
2022/03/08 05:26:39;;;;;;;5.10;4.40;;;;;;;22.57;nan;99324.94;5112359;28;20055;-57
2022/03/08 05:29:06;;;;;;;5.10;4.28;;;;;;;22.47;nan;99337.63;5112233;28;20040;-57
2022/03/08 05:31:32;;;;;;;5.18;4.50;;;;;;;22.89;nan;99328.75;5112695;28;20044;-57
2022/03/08 05:33:58;;;;;;;4.95;4.22;;;;;;;23.68;nan;99340.22;5112310;28;20044;-57
2022/03/08 05:36:24;;;;;;;5.15;4.20;;;;;;;24.32;nan;99334.66;5112494;28;20036;-57
2022/03/08 05:38:49;;;;;;;5.22;4.35;;;;;;;24.43;nan;99329.84;5112410;28;20062;-57
2022/03/08 05:41:15;;;;;;;5.43;4.43;;;;;;;24.03;nan;99334.66;5112495;28;20419;-57
2022/03/08 05:43:41;;;;;;;5.47;4.63;;;;;;;23.62;nan;99331.41;5112342;28;20634;-57
2022/03/08 05:46:06;;;;;;;5.13;4.30;;;;;;;23.27;nan;99334.88;5112628;28;20039;-56
2022/03/08 05:48:32;;;;;;;4.97;4.25;;;;;;;22.94;nan;99331.16;5112381;28;20040;-57
2022/03/08 05:50:57;;;;;;;6.05;4.82;;;;;;;22.75;nan;99346.16;5112167;28;20083;-57
2022/03/08 05:53:22;;;;;;;5.97;4.72;;;;;;;22.59;nan;99348.47;5112540;28;20058;-57
2022/03/08 05:55:48;;;;;;;5.43;4.60;;;;;;;22.45;nan;99345.59;5112229;28;20039;-57
2022/03/08 05:58:13;;;;;;;5.22;4.50;;;;;;;22.31;nan;99346.28;5111955;28;20126;-61
2022/03/08 06:00:39;;;;;;;5.60;4.72;;;;;;;22.24;nan;99337.88;5112041;28;20515;-60
2022/03/08 06:03:04;;;;;;;5.47;4.70;;;;;;;22.17;nan;99340.59;5112147;28;20131;-60
2022/03/08 06:05:30;;;;;;;5.43;4.35;;;;;;;22.11;nan;99342.13;5111965;28;20428;-60
2022/03/08 06:07:55;;;;;;;5.45;4.60;;;;;;;22.07;nan;99338.47;5111822;28;20058;-60
2022/03/08 06:10:20;;;;;;;6.00;4.75;;;;;;;21.99;nan;99330.06;5111758;28;20446;-60
2022/03/08 06:12:46;;;;;;;6.10;4.93;;;;;;;22.00;nan;99333.63;5111887;28;20040;-60
2022/03/08 06:15:11;;;;;;;5.78;4.68;;;;;;;21.94;nan;99338.00;5111405;28;20051;-60
2022/03/08 06:17:37;;;;;;;6.20;5.15;;;;;;;21.92;nan;99343.13;5111875;28;20188;-61
2022/03/08 06:20:03;;;;;;;5.88;4.60;;;;;;;21.90;nan;99351.06;5111833;28;20449;-60
2022/03/08 06:22:28;;;;;;;5.57;4.75;;;;;;;21.90;nan;99351.84;5111892;28;20092;-60
2022/03/08 06:24:54;;;;;;;5.65;4.70;;;;;;;21.85;nan;99352.19;5111841;28;20036;-61
2022/03/08 06:27:20;;;;;;;6.00;4.85;;;;;;;21.85;nan;99357.78;5110892;28;20430;-60
2022/03/08 06:29:46;;;;;;;4.80;4.05;;;;;;;21.85;nan;99362.53;5111866;28;20056;-62
2022/03/08 06:32:11;;;;;;;5.63;4.57;;;;;;;21.84;nan;99363.72;5111909;28;20046;-60
2022/03/08 06:34:37;;;;;;;5.18;4.18;;;;;;;21.82;nan;99364.13;5111781;28;20538;-60
2022/03/08 06:37:02;;;;;;;5.80;4.75;;;;;;;21.82;nan;99368.88;5111783;28;20043;-61
2022/03/08 06:39:27;;;;;;;5.47;4.38;;;;;;;21.77;nan;99372.81;5111500;28;20044;-61
2022/03/08 06:41:53;;;;;;;6.40;4.70;;;;;;;21.78;nan;99374.41;5111577;28;20081;-61
2022/03/08 06:44:18;;;;;;;5.57;4.22;;;;;;;21.76;nan;99371.22;5111624;28;20061;-61
2022/03/08 06:46:46;;;;;;;5.93;4.45;;;;;;;21.76;nan;99371.22;5111608;28;20483;-61
2022/03/08 06:49:12;;;;;;;6.22;4.45;;;;;;;21.75;nan;99377.97;5111241;28;20554;-61
2022/03/08 06:51:38;;;;;;;5.95;4.70;;;;;;;21.76;nan;99375.97;5111210;28;20088;-61
2022/03/08 06:54:08;;;;;;;7.13;4.90;;;;;;;21.75;nan;99391.88;5111199;28;20040;-61
2022/03/08 06:56:34;;;;;;;5.10;4.45;;;;;;;21.75;nan;99385.53;5111203;28;20044;-61
2022/03/08 06:59:03;;;;;;;5.90;4.70;;;;;;;21.70;nan;99390.25;5111343;28;20074;-61
2022/03/08 07:01:28;;;;;;;5.30;4.32;;;;;;;21.77;nan;99397.06;5111380;28;20048;-61
2022/03/08 07:03:54;;;;;;;5.82;4.40;;;;;;;21.90;nan;99404.78;5111235;28;20169;-61
2022/03/08 07:06:20;;;;;;;5.47;4.45;;;;;;;22.38;nan;99399.28;5111286;28;20036;-61
2022/03/08 07:08:45;;;;;;;4.95;4.18;;;;;;;22.82;nan;99401.19;5111220;28;20047;-61
2022/03/08 07:11:11;;;;;;;5.07;4.10;;;;;;;23.23;nan;99403.84;5111035;28;20047;-61
2022/03/08 07:13:36;;;;;;;5.40;4.35;;;;;;;23.22;nan;99408.63;5110966;28;20094;-61
2022/03/08 07:16:02;;;;;;;6.47;4.85;;;;;;;23.01;nan;99405.72;5110964;28;20040;-62
2022/03/08 07:18:27;;;;;;;4.70;3.95;;;;;;;22.80;nan;99407.16;5111165;28;20055;-61
2022/03/08 07:20:53;;;;;;;5.18;4.35;;;;;;;22.80;nan;99411.94;5110564;28;20065;-61
2022/03/08 07:23:19;;;;;;;5.03;4.20;;;;;;;23.30;nan;99407.47;5109979;28;20051;-61
2022/03/08 07:25:44;;;;;;;5.35;4.10;;;;;;;24.05;nan;99406.91;5104005;28;20411;-61
2022/03/08 07:28:10;;;;;;;5.05;4.53;;;;;;;24.41;nan;99407.75;5092912;28;20170;-61
2022/03/08 07:30:37;;;;;;;5.78;4.97;;;;;;;24.07;nan;99418.47;5089714;28;20519;-61
2022/03/08 07:33:02;;;;;;;5.03;4.22;;;;;;;23.69;nan;99415.19;5092035;28;20380;-61
2022/03/08 07:35:28;;;;;;;5.22;4.60;;;;;;;23.34;nan;99410.25;5089878;28;20045;-61
2022/03/08 07:37:53;;;;;;;5.60;4.70;;;;;;;23.09;nan;99412.13;5095077;28;20050;-60
2022/03/08 07:40:19;;;;;;;4.93;4.30;;;;;;;22.87;nan;99422.38;5093832;28;20052;-61
2022/03/08 07:42:44;;;;;;;5.13;4.55;;;;;;;22.72;nan;99421.44;5094250;28;20138;-61
2022/03/08 07:45:10;;;;;;;5.20;4.40;;;;;;;22.59;nan;99425.72;5094045;28;20051;-61
2022/03/08 07:47:35;;;;;;;5.57;4.60;;;;;;;22.49;nan;99425.22;5095781;28;20040;-61
2022/03/08 07:50:01;;;;;;;6.38;4.65;;;;;;;22.40;nan;99427.56;5086490;28;20139;-61
2022/03/08 07:52:26;;;;;;;5.45;4.50;;;;;;;22.36;nan;99432.31;5100727;28;20050;-61
2022/03/08 07:54:52;;;;;;;4.95;4.35;;;;;;;22.29;nan;99429.47;5100730;28;20056;-61
2022/03/08 07:57:18;;;;;;;5.25;4.50;;;;;;;22.24;nan;99433.38;5092065;28;20043;-61
2022/03/08 07:59:43;;;;;;;5.80;4.30;;;;;;;22.18;nan;99432.13;5096079;28;20089;-61
2022/03/08 08:02:08;;;;;;;5.22;4.00;;;;;;;22.13;nan;99428.88;5084424;28;20057;-61
2022/03/08 08:04:34;;;;;;;5.63;4.68;;;;;;;22.09;nan;99433.66;5090437;28;20101;-58
2022/03/08 08:06:59;;;;;;;5.63;4.40;;;;;;;22.10;nan;99426.88;5080689;28;20113;-60
2022/03/08 08:09:25;;;;;;;5.55;4.40;;;;;;;22.09;nan;99420.50;5087082;28;20431;-61
2022/03/08 08:11:51;;;;;;;5.50;4.57;;;;;;;22.09;nan;99423.31;5083609;28;20128;-60
2022/03/08 08:14:17;;;;;;;5.75;4.93;;;;;;;22.08;nan;99420.88;5086900;28;20039;-60
2022/03/08 08:16:42;;;;;;;5.72;4.63;;;;;;;22.08;nan;99420.88;5087530;28;20048;-60
2022/03/08 08:19:08;;;;;;;5.50;4.43;;;;;;;22.06;nan;99423.22;5089875;28;20044;-60
2022/03/08 08:21:33;;;;;;;6.25;4.60;;;;;;;22.04;nan;99415.25;5092081;28;20078;-60
2022/03/08 08:24:00;;;;;;;5.50;4.55;;;;;;;22.07;nan;99422.03;5089592;28;20158;-60
2022/03/08 08:26:26;;;;;;;6.07;4.65;;;;;;;22.05;nan;99416.84;5074310;28;20069;-60
2022/03/08 08:28:52;;;;;;;5.28;4.43;;;;;;;22.05;nan;99418.84;5076266;28;20044;-59
2022/03/08 08:31:17;;;;;;;5.50;4.45;;;;;;;22.05;nan;99416.06;5078409;28;20051;-60
2022/03/08 08:33:43;;;;;;;5.88;4.63;;;;;;;22.04;nan;99408.88;5079107;28;20052;-59
2022/03/08 08:36:08;;;;;;;5.30;4.60;;;;;;;22.05;nan;99410.47;5083463;28;20059;-59
2022/03/08 08:38:34;;;;;;;5.57;4.38;;;;;;;22.03;nan;99404.50;5088361;28;20044;-62
2022/03/08 08:40:59;;;;;;;5.28;4.00;;;;;;;22.05;nan;99405.72;5083909;28;20101;-61
2022/03/08 08:43:25;;;;;;;4.45;3.80;;;;;;;22.04;nan;99408.88;5087014;28;20044;-62
2022/03/08 08:45:52;;;;;;;6.45;5.05;;;;;;;22.03;nan;99402.53;5092632;28;20181;-61
2022/03/08 08:48:19;;;;;;;5.47;4.70;;;;;;;22.02;nan;99394.56;5090964;28;20557;-61
2022/03/08 08:50:45;;;;;;;5.80;4.57;;;;;;;22.04;nan;99394.97;5088389;28;20056;-60
2022/03/08 08:53:10;;;;;;;6.05;4.70;;;;;;;22.04;nan;99397.75;5089753;28;20108;-60
2022/03/08 08:55:37;;;;;;;4.88;3.83;;;;;;;22.02;nan;99394.56;5094760;28;20082;-59
2022/03/08 08:58:04;;;;;;;6.18;4.60;;;;;;;22.02;nan;99395.34;5091215;28;20052;-59
2022/03/08 09:00:30;;;;;;;5.53;4.57;;;;;;;22.05;nan;99396.56;5093176;28;20050;-60
2022/03/08 09:02:55;;;;;;;6.07;4.80;;;;;;;22.04;nan;99392.97;5089322;28;20044;-60
2022/03/08 09:05:21;;;;;;;5.05;4.10;;;;;;;22.03;nan;99385.00;5091983;28;20052;-61
2022/03/08 09:07:46;;;;;;;5.00;3.97;;;;;;;22.02;nan;99388.97;5102462;28;20039;-60
2022/03/08 09:10:13;;;;;;;5.75;4.25;;;;;;;22.04;nan;99392.16;5098215;28;20048;-60
2022/03/08 09:12:39;;;;;;;5.97;4.40;;;;;;;22.05;nan;99388.19;5104657;28;20254;-60
2022/03/08 09:15:05;;;;;;;4.78;3.65;;;;;;;22.06;nan;99392.59;5104385;28;20042;-61
2022/03/08 09:17:31;;;;;;;5.82;3.40;;;;;;;22.11;nan;99386.69;5102414;28;20408;-61
2022/03/08 09:19:56;;;;;;;4.82;3.72;;;;;;;22.20;nan;99379.59;5103037;28;20048;-61
2022/03/08 09:22:21;;;;;;;4.55;3.58;;;;;;;22.28;nan;99374.09;5102309;28;20051;-60
2022/03/08 09:24:47;;;;;;;4.47;3.60;;;;;;;22.33;nan;99368.97;5083713;28;20047;-60
2022/03/08 09:27:13;;;;;;;4.55;3.65;;;;;;;22.37;nan;99367.03;5098047;28;20055;-60
2022/03/08 09:29:38;;;;;;;4.82;3.60;;;;;;;22.41;nan;99367.84;5096498;28;20455;-61
2022/03/08 09:32:05;;;;;;;5.15;3.95;;;;;;;22.50;nan;99364.72;5090004;28;20048;-60
2022/03/08 09:34:30;;;;;;;4.95;4.10;;;;;;;22.96;nan;99367.03;5092637;28;20039;-60
2022/03/08 09:36:56;;;;;;;6.88;4.10;;;;;;;22.98;nan;99357.06;5086417;28;20062;-59
2022/03/08 09:39:21;;;;;;;4.55;3.60;;;;;;;22.97;nan;99360.25;5089371;28;20058;-58
2022/03/08 09:41:51;;;;;;;5.68;4.13;;;;;;;22.94;nan;99359.06;5088453;28;20047;-59
2022/03/08 09:44:17;;;;;;;5.20;3.95;;;;;;;23.45;nan;99355.28;5091442;28;20087;-56
2022/03/08 09:46:43;;;;;;;5.57;4.25;;;;;;;24.29;nan;99349.41;5089062;28;20052;-57
2022/03/08 09:49:08;;;;;;;6.43;4.82;;;;;;;24.94;nan;99359.34;5091992;28;20059;-56
2022/03/08 09:51:38;;;;;;;5.35;4.60;;;;;;;25.41;nan;99349.56;5092432;28;20683;-57
2022/03/08 09:54:05;;;;;;;6.50;4.63;;;;;;;25.72;nan;99341.44;5088677;28;20427;-57
2022/03/08 09:56:31;;;;;;;5.55;4.70;;;;;;;26.01;nan;99336.44;5091885;28;20059;-57
2022/03/08 09:58:56;;;;;;;7.22;5.10;;;;;;;26.23;nan;99349.06;5093315;28;20052;-57
2022/03/08 10:01:21;;;;;;;11.23;5.75;;;;;;;26.41;nan;99342.50;5089790;28;20906;-57
2022/03/08 10:03:49;;;;;;;8.40;4.95;;;;;;;26.51;nan;99338.81;5095164;28;20047;-57
2022/03/08 10:06:15;;;;;;;5.22;4.10;;;;;;;26.65;nan;99335.88;5086272;28;20058;-57
2022/03/08 10:08:41;;;;;;;6.22;4.97;;;;;;;26.76;nan;99330.94;5097595;28;20153;-59
2022/03/08 10:11:09;;;;;;;5.50;4.43;;;;;;;26.75;nan;99326.53;5093423;28;20598;-57
2022/03/08 10:13:50;;;;;;;5.93;4.18;;;;;;;26.82;nan;99331.28;5092119;28;20046;-58
2022/03/08 10:16:23;;;;;;;5.63;4.80;;;;;;;26.83;nan;99339.28;5092612;28;20123;-57
2022/03/08 10:18:53;;;;;;;;;;;;;;;26.89;nan;99337.59;5097023;28;20148;-57
2022/03/08 10:21:39;;;;;;;6.28;5.38;;;;;;;26.97;nan;99332.69;5090681;28;19924;-57
2022/03/08 10:24:24;;;;;;;7.80;5.40;;;;;;;27.05;nan;99328.63;5094083;28;20514;-57
2022/03/08 10:26:59;;;;;;;7.05;4.70;;;;;;;27.05;nan;99327.81;5093858;28;20054;-58
2022/03/08 10:29:36;;;;;;;5.85;4.80;;;;;;;27.08;nan;99322.19;5090588;28;20048;-57
2022/03/08 10:32:16;;;;;;;5.25;4.25;;;;;;;27.10;nan;99313.34;5100533;28;20438;-57
2022/03/08 10:34:43;;;;;;;5.82;4.63;;;;;;;27.22;nan;99318.41;5088531;28;20685;-57
2022/03/08 10:37:13;;;;;;;6.05;4.55;;;;;;;27.23;nan;99305.16;5089673;28;20035;-57
2022/03/08 10:40:03;;;;;;;5.97;4.00;;;;;;;27.29;nan;99301.44;5092727;28;20050;-57
2022/03/08 10:42:36;;;;;;;5.82;4.38;;;;;;;27.29;nan;99293.03;5089937;28;20052;-57
2022/03/08 10:45:05;;;;;;;6.28;4.20;;;;;;;27.28;nan;99291.41;5092507;28;20602;-58
2022/03/08 10:47:51;;;;;;;5.72;4.28;;;;;;;27.25;nan;99294.28;5093035;28;20127;-57
2022/03/08 10:50:18;;;;;;;5.00;4.00;;;;;;;27.28;nan;99285.78;5086001;28;20629;-56
2022/03/08 10:52:47;;;;;;;5.50;4.40;;;;;;;27.32;nan;99280.94;5085931;28;20143;-57
2022/03/08 10:55:18;;;;;;;5.13;4.15;;;;;;;27.37;nan;99280.47;5082394;28;20055;-58
2022/03/08 10:57:53;;;;;;;5.57;4.00;;;;;;;27.34;nan;99269.28;5091077;28;20564;-56
2022/03/08 11:00:24;;;;;;;5.25;4.05;;;;;;;27.28;nan;99254.91;5092377;28;20039;-57
2022/03/08 11:02:54;;;;;;;5.20;3.83;;;;;;;27.36;nan;99269.63;5088053;28;20500;-56
2022/03/08 11:05:22;;;;;;;5.07;3.85;;;;;;;27.37;nan;99258.00;5093729;28;20131;-57
2022/03/08 11:07:48;;;;;;;6.30;4.00;;;;;;;27.33;nan;99254.44;5094780;28;20047;-56
2022/03/08 11:10:15;;;;;;;6.68;3.80;;;;;;;27.39;nan;99249.94;5093669;28;20089;-57
2022/03/08 11:12:41;;;;;;;5.03;4.00;;;;;;;27.41;nan;99258.72;5082785;28;20051;-56
2022/03/08 11:15:09;;;;;;;7.10;4.20;;;;;;;27.44;nan;99248.69;5094796;28;20051;-56
2022/03/08 11:17:37;;;;;;;4.90;3.95;;;;;;;27.47;nan;99241.41;5094394;28;20044;-58
2022/03/08 11:20:06;;;;;;;5.10;3.95;;;;;;;27.45;nan;99235.41;5096974;28;20550;-57
2022/03/08 11:22:32;;;;;;;4.90;3.80;;;;;;;27.50;nan;99232.09;5088552;28;20472;-56
2022/03/08 11:24:59;;;;;;;4.85;3.78;;;;;;;27.51;nan;99219.69;5087973;28;20300;-57
2022/03/08 11:27:25;;;;;;;5.03;3.80;;;;;;;27.50;nan;99227.28;5087007;28;20588;-57
2022/03/08 11:29:51;;;;;;;5.03;3.72;;;;;;;27.55;nan;99221.19;5092987;28;20055;-60
2022/03/08 11:32:24;;;;;;;5.93;4.20;;;;;;;27.56;nan;99228.41;5089945;28;20051;-60
2022/03/08 11:35:00;;;;;;;;;;;;;;;27.62;nan;99218.28;5090035;28;20474;-60
2022/03/08 11:37:27;;;;;;;6.95;3.83;;;;;;;27.60;nan;99222.75;5093608;28;20497;-60
2022/03/08 11:40:14;;;;;;;4.20;3.40;;;;;;;27.61;nan;99213.88;5089449;28;20745;-60
2022/03/08 11:42:47;;;;;;;5.82;4.00;;;;;;;27.66;nan;99215.41;5090285;28;20393;-60
2022/03/08 11:45:18;;;;;;;5.57;4.20;;;;;;;27.70;nan;99207.72;5090342;28;20493;-57
2022/03/08 11:47:46;;;;;;;4.97;4.30;;;;;;;27.73;nan;99203.28;5092251;28;20084;-57